Time;durP1;ratioP1;P1;durP2;ratioP2;P2;SDS_P1;SDS_P2;PMS_P1;PMS_P2;Temp;Humidity;BMP_temperature;BMP_pressure;BME280_temperature;BME280_humidity;BME280_pressure;Samples;Min_cycle;Max_cycle;Signal;HPM_P1;HPM_P2
2023/11/10 00:00:31;;;;;;;9.18;5.93;;;;;;;;;;10502556;28;20032;-71
2023/11/10 00:05:32;;;;;;;8.55;5.70;;;;;;;;;;10506822;28;20298;-71
2023/11/10 00:10:32;;;;;;;11.30;5.82;;;;;;;;;;10507177;28;20135;-71
2023/11/10 00:15:34;;;;;;;12.90;6.18;;;;;;;;;;10506608;28;20027;-71
2023/11/10 00:20:36;;;;;;;11.35;5.85;;;;;;;;;;10506026;28;20066;-70
2023/11/10 00:25:36;;;;;;;13.18;5.68;;;;;;;;;;10506572;28;20048;-70
2023/11/10 00:30:37;;;;;;;12.67;6.27;;;;;;;;;;10505547;28;20334;-69
2023/11/10 00:35:37;;;;;;;10.90;6.10;;;;;;;;;;10505414;28;20029;-69
2023/11/10 00:40:37;;;;;;;13.27;5.60;;;;;;;;;;10505535;28;20278;-70
2023/11/10 00:45:38;;;;;;;11.35;6.22;;;;;;;;;;10505437;28;20316;-71
2023/11/10 00:50:38;;;;;;;7.03;4.80;;;;;;;;;;10505181;28;20214;-70
2023/11/10 00:55:38;;;;;;;12.57;5.32;;;;;;;;;;10505280;28;20039;-69
2023/11/10 01:00:39;;;;;;;13.05;7.10;;;;;;;;;;10504835;28;20070;-70
2023/11/10 01:05:39;;;;;;;10.15;5.13;;;;;;;;;;10504433;28;20040;-70
2023/11/10 01:10:39;;;;;;;8.70;5.45;;;;;;;;;;10504243;28;20353;-70
2023/11/10 01:15:40;;;;;;;11.35;5.93;;;;;;;;;;10504271;28;20021;-70
2023/11/10 01:20:40;;;;;;;12.38;4.97;;;;;;;;;;10504187;28;20025;-73
2023/11/10 01:25:41;;;;;;;12.15;6.25;;;;;;;;;;10503703;28;20077;-70
2023/11/10 01:30:41;;;;;;;9.13;5.15;;;;;;;;;;10503443;28;20063;-70
2023/11/10 01:35:41;;;;;;;8.45;4.35;;;;;;;;;;10503651;28;20062;-70
2023/11/10 01:40:43;;;;;;;13.10;5.50;;;;;;;;;;10503471;28;20051;-70
2023/11/10 01:45:44;;;;;;;13.13;5.93;;;;;;;;;;10490047;28;20069;-70
2023/11/10 01:50:44;;;;;;;9.43;4.78;;;;;;;;;;10503223;28;20025;-70
2023/11/10 01:55:47;;;;;;;6.63;5.22;;;;;;;;;;10503348;28;20330;-70
2023/11/10 02:00:49;;;;;;;11.57;6.00;;;;;;;;;;10512659;28;20012;-71
2023/11/10 02:05:49;;;;;;;11.70;4.85;;;;;;;;;;10502912;28;20115;-70
2023/11/10 02:10:49;;;;;;;11.82;6.43;;;;;;;;;;10502413;28;20023;-69
2023/11/10 02:15:49;;;;;;;10.40;5.95;;;;;;;;;;10502303;28;20337;-70
2023/11/10 02:20:50;;;;;;;7.90;5.88;;;;;;;;;;10501956;28;20029;-70
2023/11/10 02:25:53;;;;;;;12.90;5.80;;;;;;;;;;10501446;28;20079;-70
2023/11/10 02:30:53;;;;;;;9.63;5.40;;;;;;;;;;10501226;28;20090;-70
2023/11/10 02:35:54;;;;;;;8.23;5.30;;;;;;;;;;10501935;28;20028;-70
2023/11/10 02:40:54;;;;;;;10.40;5.10;;;;;;;;;;10500791;28;20020;-70
2023/11/10 02:45:54;;;;;;;10.73;5.73;;;;;;;;;;10501222;28;20306;-70
2023/11/10 02:50:55;;;;;;;9.75;5.50;;;;;;;;;;10483181;28;20024;-71
2023/11/10 02:55:55;;;;;;;6.05;3.78;;;;;;;;;;10500487;28;20036;-69
2023/11/10 03:00:55;;;;;;;12.33;4.60;;;;;;;;;;10500668;28;20112;-70
2023/11/10 03:05:56;;;;;;;6.60;4.70;;;;;;;;;;10500574;28;20021;-70
2023/11/10 03:10:57;;;;;;;7.30;4.53;;;;;;;;;;10500317;28;20389;-69
2023/11/10 03:15:57;;;;;;;7.10;3.97;;;;;;;;;;10500247;28;20036;-70
2023/11/10 03:21:00;;;;;;;5.43;4.45;;;;;;;;;;10499953;28;20028;-70
2023/11/10 03:26:01;;;;;;;12.93;4.13;;;;;;;;;;10499862;28;20035;-70
2023/11/10 03:31:05;;;;;;;9.43;4.25;;;;;;;;;;10499663;28;20055;-69
2023/11/10 03:36:05;;;;;;;7.38;4.15;;;;;;;;;;10505556;28;20041;-71
2023/11/10 03:41:06;;;;;;;6.55;4.50;;;;;;;;;;10508086;28;20373;-69
2023/11/10 03:46:08;;;;;;;7.85;4.10;;;;;;;;;;10508077;28;20249;-69
2023/11/10 03:51:11;;;;;;;8.35;3.83;;;;;;;;;;10508235;28;20232;-70
2023/11/10 03:56:12;;;;;;;11.07;4.45;;;;;;;;;;10505523;28;20028;-70
2023/11/10 04:01:13;;;;;;;8.90;4.13;;;;;;;;;;10507506;28;20353;-70
2023/11/10 04:06:13;;;;;;;11.02;5.15;;;;;;;;;;10507545;28;20410;-69
2023/11/10 04:11:14;;;;;;;12.65;4.70;;;;;;;;;;10488995;28;20058;-70
2023/11/10 04:16:17;;;;;;;6.80;4.15;;;;;;;;;;10507104;28;20016;-69
2023/11/10 04:21:18;;;;;;;7.32;4.75;;;;;;;;;;10506527;28;20371;-69
2023/11/10 04:26:20;;;;;;;9.68;4.97;;;;;;;;;;10506545;28;20020;-69
2023/11/10 04:31:20;;;;;;;11.52;5.50;;;;;;;;;;10508474;28;20041;-69
2023/11/10 04:36:21;;;;;;;10.88;5.45;;;;;;;;;;10506305;28;20485;-68
2023/11/10 04:41:22;;;;;;;11.55;4.55;;;;;;;;;;10479805;28;20096;-69
2023/11/10 04:46:22;;;;;;;10.30;5.30;;;;;;;;;;10505602;28;20024;-69
2023/11/10 04:51:23;;;;;;;8.00;5.35;;;;;;;;;;10505785;28;20028;-69
2023/11/10 04:56:23;;;;;;;13.30;6.03;;;;;;;;;;10505398;28;20200;-69
2023/11/10 05:01:25;;;;;;;10.43;5.07;;;;;;;;;;10504928;28;20029;-68
2023/11/10 05:06:28;;;;;;;21.63;6.22;;;;;;;;;;10504959;28;20079;-68
2023/11/10 05:11:29;;;;;;;7.95;5.35;;;;;;;;;;10504524;28;20035;-67
2023/11/10 05:16:29;;;;;;;7.78;4.85;;;;;;;;;;10504633;28;20230;-67
2023/11/10 05:21:29;;;;;;;17.42;5.20;;;;;;;;;;10500949;28;20032;-68
2023/11/10 05:26:30;;;;;;;13.27;5.68;;;;;;;;;;10471832;28;20020;-67
2023/11/10 05:31:30;;;;;;;13.27;5.60;;;;;;;;;;10503519;28;20044;-68
2023/11/10 05:36:30;;;;;;;8.30;5.43;;;;;;;;;;10503585;28;20060;-69
2023/11/10 05:41:34;;;;;;;15.50;6.30;;;;;;;;;;10503074;28;20418;-67
2023/11/10 05:46:34;;;;;;;12.63;6.32;;;;;;;;;;10503034;28;20021;-68
2023/11/10 05:51:34;;;;;;;14.75;6.30;;;;;;;;;;10484916;28;20032;-68
2023/11/10 05:56:36;;;;;;;13.55;4.80;;;;;;;;;;10516907;28;20062;-67
2023/11/10 06:01:36;;;;;;;9.65;5.97;;;;;;;;;;10483929;28;20398;-67
2023/11/10 06:06:36;;;;;;;10.52;5.43;;;;;;;;;;10501822;28;20027;-67
2023/11/10 06:11:37;;;;;;;12.73;4.88;;;;;;;;;;10501867;28;20192;-69
2023/11/10 06:16:38;;;;;;;18.67;5.78;;;;;;;;;;10497151;28;20333;-68
2023/11/10 06:21:39;;;;;;;9.20;5.70;;;;;;;;;;10501528;28;20390;-67
2023/11/10 06:26:39;;;;;;;10.80;5.40;;;;;;;;;;10500554;28;20023;-68
2023/11/10 06:31:40;;;;;;;10.10;4.63;;;;;;;;;;10501167;28;20186;-68
2023/11/10 06:36:41;;;;;;;9.80;5.95;;;;;;;;;;10500843;28;20103;-68
2023/11/10 06:41:41;;;;;;;9.82;5.40;;;;;;;;;;10499980;28;20034;-68
2023/11/10 06:46:41;;;;;;;7.68;4.75;;;;;;;;;;10500849;28;20017;-68
2023/11/10 06:51:41;;;;;;;12.80;4.90;;;;;;;;;;10500605;28;20345;-67
2023/11/10 06:56:43;;;;;;;7.15;4.93;;;;;;;;;;10499920;28;20347;-67
2023/11/10 07:01:43;;;;;;;9.50;5.70;;;;;;;;;;10499720;28;20387;-67
2023/11/10 07:06:44;;;;;;;12.70;6.10;;;;;;;;;;10500100;28;20099;-67
2023/11/10 07:11:45;;;;;;;12.77;6.32;;;;;;;;;;10499511;28;20552;-67
2023/11/10 07:16:45;;;;;;;19.63;7.15;;;;;;;;;;10499566;28;20028;-68
2023/11/10 07:21:47;;;;;;;13.15;7.45;;;;;;;;;;10499464;28;20036;-67
2023/11/10 07:26:47;;;;;;;18.35;9.73;;;;;;;;;;10481588;28;20063;-68
2023/11/10 07:31:48;;;;;;;13.27;7.40;;;;;;;;;;10480825;28;20048;-67
2023/11/10 07:36:48;;;;;;;14.18;7.70;;;;;;;;;;10499150;28;20070;-68
2023/11/10 07:41:49;;;;;;;22.08;8.48;;;;;;;;;;10499051;28;20032;-68
2023/11/10 07:46:49;;;;;;;16.90;9.23;;;;;;;;;;10498090;28;20087;-67
2023/11/10 07:51:52;;;;;;;14.63;7.83;;;;;;;;;;10499397;28;20206;-68
2023/11/10 07:56:53;;;;;;;21.42;8.80;;;;;;;;;;10511753;28;20044;-68
2023/11/10 08:01:53;;;;;;;22.77;7.47;;;;;;;;;;10498382;28;20030;-68
2023/11/10 08:06:54;;;;;;;19.58;8.20;;;;;;;;;;10498831;28;20079;-67
2023/11/10 08:11:54;;;;;;;17.20;9.18;;;;;;;;;;10498758;28;20249;-67
2023/11/10 08:16:54;;;;;;;13.25;7.82;;;;;;;;;;10498177;28;20029;-68
2023/11/10 08:21:55;;;;;;;14.10;8.30;;;;;;;;;;10502780;28;20322;-68
2023/11/10 08:26:55;;;;;;;14.88;7.45;;;;;;;;;;10505829;28;20270;-68
2023/11/10 08:31:56;;;;;;;16.67;7.95;;;;;;;;;;10504839;28;20040;-67
2023/11/10 08:36:57;;;;;;;15.57;7.82;;;;;;;;;;10500331;28;20131;-67
2023/11/10 08:41:58;;;;;;;15.35;6.60;;;;;;;;;;10500530;28;20048;-66
2023/11/10 08:46:59;;;;;;;11.80;6.05;;;;;;;;;;10499719;28;20042;-67
2023/11/10 08:51:59;;;;;;;12.30;7.32;;;;;;;;;;10499643;28;20234;-68
2023/11/10 08:57:00;;;;;;;13.73;7.22;;;;;;;;;;10499485;28;20044;-68
2023/11/10 09:02:00;;;;;;;14.10;7.38;;;;;;;;;;10498876;28;20420;-68
2023/11/10 09:07:00;;;;;;;12.97;6.60;;;;;;;;;;10481205;28;20048;-67
2023/11/10 09:12:01;;;;;;;25.70;7.60;;;;;;;;;;10483340;28;20369;-68
2023/11/10 09:17:03;;;;;;;14.60;6.22;;;;;;;;;;10498580;28;20094;-69
2023/11/10 09:22:03;;;;;;;9.02;6.20;;;;;;;;;;10499108;28;20036;-69
2023/11/10 09:27:05;;;;;;;8.13;6.10;;;;;;;;;;10498626;28;20029;-68
2023/11/10 09:32:10;;;;;;;11.82;5.97;;;;;;;;;;10502769;28;20056;-68
2023/11/10 09:37:11;;;;;;;16.90;5.80;;;;;;;;;;10498340;28;20060;-68
2023/11/10 09:42:12;;;;;;;7.80;5.20;;;;;;;;;;10498319;28;20334;-66
2023/11/10 09:47:13;;;;;;;9.45;4.97;;;;;;;;;;10462256;28;20032;-68
2023/11/10 09:52:15;;;;;;;7.28;5.30;;;;;;;;;;10498137;28;20074;-68
2023/11/10 09:57:17;;;;;;;12.02;5.70;;;;;;;;;;10498107;28;20032;-67
2023/11/10 10:02:18;;;;;;;8.20;5.35;;;;;;;;;;10497111;28;20036;-69
2023/11/10 10:07:18;;;;;;;8.77;5.68;;;;;;;;;;10497083;28;20291;-67
2023/11/10 10:12:18;;;;;;;10.10;5.37;;;;;;;;;;10496893;28;20033;-68
2023/11/10 10:17:19;;;;;;;8.37;5.97;;;;;;;;;;10495709;28;20324;-68
2023/11/10 10:22:22;;;;;;;13.68;5.90;;;;;;;;;;10496355;28;20668;-68
2023/11/10 10:27:24;;;;;;;13.85;6.60;;;;;;;;;;10494643;28;20082;-67
2023/11/10 10:32:24;;;;;;;8.68;5.70;;;;;;;;;;10502308;28;20056;-69
2023/11/10 10:37:25;;;;;;;11.05;6.85;;;;;;;;;;10496125;28;20322;-68
2023/11/10 10:42:28;;;;;;;11.05;7.65;;;;;;;;;;10495632;28;20048;-68
2023/11/10 10:47:28;;;;;;;19.50;6.63;;;;;;;;;;10485334;28;20305;-67
2023/11/10 10:52:29;;;;;;;13.57;6.63;;;;;;;;;;10477633;28;20066;-68
2023/11/10 10:57:29;;;;;;;11.48;6.88;;;;;;;;;;10495399;28;20075;-68
2023/11/10 11:02:30;;;;;;;10.88;6.05;;;;;;;;;;10494834;28;20095;-68
2023/11/10 11:07:49;;;;;;;10.15;6.20;;;;;;;;;;10494795;28;20028;-68
2023/11/10 11:13:03;;;;;;;9.63;5.82;;;;;;;;;;10495167;28;20044;-67
2023/11/10 11:18:10;;;;;;;10.18;5.95;;;;;;;;;;10494585;28;20051;-67
2023/11/10 11:23:11;;;;;;;15.33;6.10;;;;;;;;;;10494561;28;20040;-67
2023/11/10 11:28:11;;;;;;;12.07;5.60;;;;;;;;;;10494420;28;20223;-67
2023/11/10 11:33:12;;;;;;;9.40;5.68;;;;;;;;;;10494282;28;20542;-67
2023/11/10 11:38:25;;;;;;;11.57;5.70;;;;;;;;;;10494063;28;20106;-68
2023/11/10 11:43:25;;;;;;;10.55;5.43;;;;;;;;;;10494270;28;20286;-67
2023/11/10 11:48:25;;;;;;;10.80;6.65;;;;;;;;;;10494653;28;20028;-67
2023/11/10 11:53:25;;;;;;;16.48;8.10;;;;;;;;;;10494520;28;20331;-67
2023/11/10 11:58:26;;;;;;;7.47;4.78;;;;;;;;;;10501499;28;20238;-67
2023/11/10 12:03:27;;;;;;;10.35;5.25;;;;;;;;;;10502201;28;20032;-67
2023/11/10 12:08:28;;;;;;;14.60;5.40;;;;;;;;;;10502379;28;20033;-68
2023/11/10 12:13:28;;;;;;;8.68;5.28;;;;;;;;;;10501474;28;20032;-67
2023/11/10 12:18:29;;;;;;;14.40;6.63;;;;;;;;;;10484198;28;20425;-67
2023/11/10 12:23:29;;;;;;;12.75;6.13;;;;;;;;;;10501730;28;20036;-67
2023/11/10 12:28:33;;;;;;;10.63;6.35;;;;;;;;;;10501803;28;20028;-67
2023/11/10 12:33:33;;;;;;;8.73;5.47;;;;;;;;;;10500877;28;20044;-68
2023/11/10 12:38:34;;;;;;;12.80;6.87;;;;;;;;;;10499656;28;20264;-68
2023/11/10 12:43:34;;;;;;;14.70;7.57;;;;;;;;;;10498245;28;20261;-69
2023/11/10 12:48:35;;;;;;;16.45;6.30;;;;;;;;;;10500336;28;20274;-68
2023/11/10 12:53:36;;;;;;;11.07;6.38;;;;;;;;;;10500348;28;20040;-67
2023/11/10 12:58:37;;;;;;;21.17;7.18;;;;;;;;;;10499996;28;20407;-68
2023/11/10 13:03:37;;;;;;;16.33;7.22;;;;;;;;;;10499455;28;20249;-68
2023/11/10 13:08:37;;;;;;;16.40;6.90;;;;;;;;;;10499827;28;20349;-68
2023/11/10 13:13:38;;;;;;;12.32;6.22;;;;;;;;;;10499403;28;20303;-67
2023/11/10 13:18:38;;;;;;;14.05;7.32;;;;;;;;;;10498991;28;20036;-67
2023/11/10 13:23:39;;;;;;;13.85;6.30;;;;;;;;;;10499232;28;20034;-68
2023/11/10 13:28:39;;;;;;;12.95;5.90;;;;;;;;;;10499261;28;20223;-68
2023/11/10 13:33:42;;;;;;;14.17;6.97;;;;;;;;;;10498205;28;20052;-68
2023/11/10 13:38:43;;;;;;;14.63;5.82;;;;;;;;;;10464813;28;20254;-67
2023/11/10 13:43:43;;;;;;;12.50;5.75;;;;;;;;;;10479460;28;20107;-67
2023/11/10 13:48:45;;;;;;;9.35;5.53;;;;;;;;;;10480016;28;20111;-68
2023/11/10 13:53:46;;;;;;;6.35;3.25;;;;;;;;;;10479557;28;20139;-68
2023/11/10 13:58:46;;;;;;;4.30;3.10;;;;;;;;;;10496616;28;20028;-68
2023/11/10 14:03:46;;;;;;;10.82;4.00;;;;;;;;;;10491948;28;20293;-67
2023/11/10 14:08:47;;;;;;;4.82;3.03;;;;;;;;;;10488967;28;20063;-67
2023/11/10 14:13:47;;;;;;;4.22;2.90;;;;;;;;;;10479101;28;20048;-68
2023/11/10 14:18:48;;;;;;;4.57;3.07;;;;;;;;;;10495917;28;20095;-68
2023/11/10 14:23:48;;;;;;;6.25;3.67;;;;;;;;;;10496953;28;20031;-69
2023/11/10 14:28:52;;;;;;;7.07;3.80;;;;;;;;;;10500989;28;20341;-67
2023/11/10 14:33:52;;;;;;;6.20;3.75;;;;;;;;;;10500445;28;20286;-68
2023/11/10 14:38:53;;;;;;;5.15;3.72;;;;;;;;;;10500869;28;20382;-67
2023/11/10 14:43:53;;;;;;;5.47;4.20;;;;;;;;;;10500783;28;20024;-67
2023/11/10 14:48:54;;;;;;;7.20;4.15;;;;;;;;;;10496420;28;20258;-67
2023/11/10 14:53:54;;;;;;;18.23;4.50;;;;;;;;;;10497968;28;20032;-67
2023/11/10 14:58:55;;;;;;;9.47;3.87;;;;;;;;;;10498666;28;20082;-70
2023/11/10 15:03:55;;;;;;;5.78;3.83;;;;;;;;;;10480647;28;20028;-68
2023/11/10 15:08:56;;;;;;;7.57;4.82;;;;;;;;;;10497483;28;20024;-67
2023/11/10 15:13:56;;;;;;;8.55;4.35;;;;;;;;;;10497707;28;20261;-64
2023/11/10 15:18:56;;;;;;;9.73;5.07;;;;;;;;;;10496984;28;20043;-66
2023/11/10 15:23:56;;;;;;;13.35;4.45;;;;;;;;;;10478588;28;20036;-67
2023/11/10 15:28:57;;;;;;;9.13;4.43;;;;;;;;;;10497327;28;20107;-67
2023/11/10 15:33:58;;;;;;;11.65;3.92;;;;;;;;;;10496283;28;20302;-66
2023/11/10 15:38:58;;;;;;;5.38;3.28;;;;;;;;;;10496133;28;20103;-67
2023/11/10 15:43:59;;;;;;;8.00;4.60;;;;;;;;;;10496566;28;20043;-66
2023/11/10 15:48:59;;;;;;;14.63;4.53;;;;;;;;;;10496675;28;20024;-67
2023/11/10 15:53:59;;;;;;;4.90;3.42;;;;;;;;;;10496474;28;20230;-67
2023/11/10 15:59:00;;;;;;;7.10;4.10;;;;;;;;;;10478771;28;20032;-67
2023/11/10 16:04:01;;;;;;;6.30;4.03;;;;;;;;;;10496037;28;20029;-68
2023/11/10 16:09:04;;;;;;;9.93;4.40;;;;;;;;;;10496151;28;20340;-66
2023/11/10 16:14:04;;;;;;;8.18;5.00;;;;;;;;;;10496309;28;20918;-65
2023/11/10 16:19:06;;;;;;;11.52;4.70;;;;;;;;;;10496430;28;20206;-65
2023/11/10 16:24:06;;;;;;;10.40;5.05;;;;;;;;;;10495467;28;20305;-66
2023/11/10 16:29:06;;;;;;;10.30;4.70;;;;;;;;;;10492769;28;20025;-68
2023/11/10 16:34:08;;;;;;;20.30;6.13;;;;;;;;;;10495830;28;20099;-70
2023/11/10 16:39:09;;;;;;;11.07;5.28;;;;;;;;;;10495305;28;20036;-70
2023/11/10 16:44:10;;;;;;;12.15;5.50;;;;;;;;;;10502239;28;20233;-70
2023/11/10 16:49:11;;;;;;;12.63;6.63;;;;;;;;;;10503059;28;20082;-70
2023/11/10 16:54:11;;;;;;;11.40;6.00;;;;;;;;;;10502526;28;20036;-69
2023/11/10 16:59:11;;;;;;;10.90;5.95;;;;;;;;;;10502771;28;20036;-69
2023/11/10 17:04:11;;;;;;;9.75;6.75;;;;;;;;;;10502112;28;20040;-70
2023/11/10 17:09:11;;;;;;;11.17;6.20;;;;;;;;;;10500785;28;20543;-70
2023/11/10 17:14:12;;;;;;;11.25;5.57;;;;;;;;;;10502184;28;20040;-70
2023/11/10 17:19:12;;;;;;;11.48;6.30;;;;;;;;;;10501842;28;20226;-70
2023/11/10 17:24:13;;;;;;;9.00;6.10;;;;;;;;;;10501701;28;20036;-68
2023/11/10 17:29:13;;;;;;;11.13;6.35;;;;;;;;;;10501381;28;20524;-69
2023/11/10 17:34:13;;;;;;;14.93;7.37;;;;;;;;;;10483058;28;20115;-70
2023/11/10 17:39:14;;;;;;;17.52;6.70;;;;;;;;;;10483432;28;20230;-70
2023/11/10 17:44:14;;;;;;;28.80;7.70;;;;;;;;;;10501279;28;20081;-70
2023/11/10 17:49:14;;;;;;;13.23;6.43;;;;;;;;;;10500996;28;20401;-70
2023/11/10 17:54:15;;;;;;;14.85;6.72;;;;;;;;;;10499751;28;20143;-69
2023/11/10 17:59:15;;;;;;;9.60;5.28;;;;;;;;;;10500576;28;20040;-69
2023/11/10 18:04:15;;;;;;;8.60;5.07;;;;;;;;;;10500721;28;20043;-70
2023/11/10 18:09:16;;;;;;;12.52;5.50;;;;;;;;;;10500353;28;20104;-70
2023/11/10 18:14:17;;;;;;;12.60;5.88;;;;;;;;;;10516263;28;20040;-69
2023/11/10 18:19:17;;;;;;;8.40;5.38;;;;;;;;;;10499378;28;20238;-68
2023/11/10 18:24:17;;;;;;;11.52;6.00;;;;;;;;;;10499893;28;20032;-69
2023/11/10 18:29:19;;;;;;;10.88;6.82;;;;;;;;;;10499550;28;20102;-70
2023/11/10 18:34:20;;;;;;;13.43;6.63;;;;;;;;;;10498125;28;20044;-70
2023/11/10 18:39:20;;;;;;;15.13;7.05;;;;;;;;;;10498995;28;20040;-69
2023/11/10 18:44:20;;;;;;;13.98;7.45;;;;;;;;;;10498819;28;20067;-68
2023/11/10 18:49:21;;;;;;;19.00;8.35;;;;;;;;;;10498064;28;20358;-69
2023/11/10 18:54:21;;;;;;;12.82;6.85;;;;;;;;;;10498621;28;20024;-69
2023/11/10 18:59:21;;;;;;;14.95;6.88;;;;;;;;;;10488377;28;20039;-67
2023/11/10 19:04:22;;;;;;;14.70;6.18;;;;;;;;;;10475331;28;20342;-67
2023/11/10 19:09:22;;;;;;;10.13;5.75;;;;;;;;;;10456597;28;20029;-71
2023/11/10 19:14:22;;;;;;;15.35;5.82;;;;;;;;;;10470369;28;20374;-74
2023/11/10 19:19:22;;;;;;;6.97;4.70;;;;;;;;;;10475576;28;20407;-72
2023/11/10 19:24:23;;;;;;;10.20;5.50;;;;;;;;;;10471469;28;20038;-65
2023/11/10 19:29:23;;;;;;;12.02;6.35;;;;;;;;;;10472982;28;20215;-71
2023/11/10 19:34:23;;;;;;;12.35;5.85;;;;;;;;;;10458918;28;20051;-70
2023/11/10 19:39:24;;;;;;;14.40;6.73;;;;;;;;;;10458396;28;20033;-71
2023/11/10 19:44:24;;;;;;;14.30;6.40;;;;;;;;;;10473484;28;20051;-66
2023/11/10 19:49:25;;;;;;;13.93;6.17;;;;;;;;;;10474662;28;20189;-76
2023/11/10 19:54:25;;;;;;;17.48;8.57;;;;;;;;;;10470371;28;20279;-71
2023/11/10 19:59:25;;;;;;;14.88;7.20;;;;;;;;;;10475486;28;20055;-73
2023/11/10 20:04:25;;;;;;;12.50;5.88;;;;;;;;;;10475880;28;20032;-69
2023/11/10 20:09:27;;;;;;;16.20;6.38;;;;;;;;;;10469889;28;20056;-75
2023/11/10 20:14:28;;;;;;;13.82;6.55;;;;;;;;;;10479604;28;20303;-67
2023/11/10 20:19:34;;;;;;;13.38;6.43;;;;;;;;;;10477597;28;20319;-73
2023/11/10 20:24:41;;;;;;;13.20;7.25;;;;;;;;;;10471800;28;20767;-71
2023/11/10 20:30:22;;;;;;;13.32;6.30;;;;;;;;;;10471035;28;20096;-77
2023/11/10 20:41:11;;;;;;;14.15;8.18;;;;;;;;;;10337716;28;20042;-73
2023/11/10 20:46:11;;;;;;;16.75;8.98;;;;;;;;;;10431455;28;20043;-71
2023/11/10 20:51:17;;;;;;;18.52;9.63;;;;;;;;;;10450458;28;20318;-72
2023/11/10 20:56:18;;;;;;;21.05;11.20;;;;;;;;;;10449185;28;20107;-73
2023/11/10 21:01:19;;;;;;;26.63;13.30;;;;;;;;;;10447211;28;20033;-71
2023/11/10 21:06:19;;;;;;;25.63;12.38;;;;;;;;;;10440659;28;20025;-72
2023/11/10 21:11:20;;;;;;;23.00;12.55;;;;;;;;;;10452920;28;20031;-71
2023/11/10 21:16:21;;;;;;;26.53;12.53;;;;;;;;;;10451362;28;20036;-71
2023/11/10 21:21:21;;;;;;;25.15;11.85;;;;;;;;;;10446993;28;20041;-72
2023/11/10 21:26:22;;;;;;;27.90;14.70;;;;;;;;;;10449205;28;20318;-71
2023/11/10 21:31:24;;;;;;;45.47;15.43;;;;;;;;;;10455074;28;20056;-72
2023/11/10 21:36:24;;;;;;;36.25;18.63;;;;;;;;;;10469428;28;20009;-71
2023/11/10 21:41:26;;;;;;;29.93;13.23;;;;;;;;;;10471740;28;20025;-72
2023/11/10 21:46:27;;;;;;;27.63;12.88;;;;;;;;;;10470477;28;20012;-70
2023/11/10 21:51:27;;;;;;;21.93;12.93;;;;;;;;;;10465792;28;20017;-72
2023/11/10 21:56:28;;;;;;;29.58;14.60;;;;;;;;;;10476588;28;20039;-70
2023/11/10 22:01:28;;;;;;;27.23;14.75;;;;;;;;;;10466486;28;20220;-71
2023/11/10 22:06:28;;;;;;;29.30;14.98;;;;;;;;;;10454841;28;20039;-75
2023/11/10 22:11:28;;;;;;;28.00;14.37;;;;;;;;;;10477636;28;20059;-75
2023/11/10 22:16:31;;;;;;;24.67;14.07;;;;;;;;;;10475269;28;20120;-73
2023/11/10 22:21:38;;;;;;;31.88;15.18;;;;;;;;;;10471836;28;20101;-79
2023/11/10 22:26:40;;;;;;;35.83;15.63;;;;;;;;;;10475785;28;20548;-70
2023/11/10 22:31:40;;;;;;;29.42;14.35;;;;;;;;;;10474497;28;20067;-69
2023/11/10 22:36:40;;;;;;;25.67;14.25;;;;;;;;;;10473183;28;20032;-69
2023/11/10 22:41:42;;;;;;;25.20;14.82;;;;;;;;;;10474030;28;20611;-69
2023/11/10 22:46:43;;;;;;;29.38;14.88;;;;;;;;;;10473099;28;20088;-68
2023/11/10 22:51:43;;;;;;;27.95;14.77;;;;;;;;;;10471080;28;20329;-70
2023/11/10 22:56:43;;;;;;;27.87;14.30;;;;;;;;;;10471132;28;20125;-70
2023/11/10 23:01:44;;;;;;;27.15;14.20;;;;;;;;;;10472760;28;20358;-70
2023/11/10 23:06:45;;;;;;;28.27;13.35;;;;;;;;;;10475381;28;20035;-72
2023/11/10 23:11:45;;;;;;;24.97;12.67;;;;;;;;;;10467110;28;20034;-71
2023/11/10 23:16:45;;;;;;;22.13;13.40;;;;;;;;;;10483146;28;20027;-68
2023/11/10 23:21:45;;;;;;;27.02;15.25;;;;;;;;;;10498759;28;20021;-69
2023/11/10 23:26:46;;;;;;;30.38;13.93;;;;;;;;;;10499248;28;20031;-68
2023/11/10 23:31:46;;;;;;;22.70;11.88;;;;;;;;;;10495900;28;20044;-68
2023/11/10 23:36:47;;;;;;;15.15;6.50;;;;;;;;;;10490041;28;20188;-67
2023/11/10 23:41:47;;;;;;;10.85;5.80;;;;;;;;;;10495106;28;20250;-68
2023/11/10 23:46:48;;;;;;;7.18;4.72;;;;;;;;;;10496877;28;20123;-67
2023/11/10 23:51:48;;;;;;;11.20;4.97;;;;;;;;;;10500063;28;20024;-67
2023/11/10 23:56:48;;;;;;;6.07;4.55;;;;;;;;;;10505039;28;20029;-67
